Time;durP1;ratioP1;P1;durP2;ratioP2;P2;SDS_P1;SDS_P2;PMS_P1;PMS_P2;Temp;Humidity;BMP_temperature;BMP_pressure;BME280_temperature;BME280_humidity;BME280_pressure;Samples;Min_cycle;Max_cycle;Signal;HPM_P1;HPM_P2
2022/03/14 00:02:06;;;;;;;13.57;6.23;;;;;;;-4.75;63.60;96968.03;1695456;85;21587;-67
2022/03/14 00:04:34;;;;;;;11.93;7.03;;;;;;;-4.67;63.63;96968.98;1695509;85;21025;-67
2022/03/14 00:07:02;;;;;;;12.27;7.20;;;;;;;-4.61;63.00;96969.38;1695215;85;21124;-66
2022/03/14 00:09:30;;;;;;;14.07;6.50;;;;;;;-4.55;62.45;96967.58;1695485;85;21558;-67
2022/03/14 00:11:57;;;;;;;12.83;6.03;;;;;;;-4.69;62.64;96968.40;1695350;85;21032;-66
2022/03/14 00:14:25;;;;;;;13.23;6.53;;;;;;;-4.80;62.63;96971.20;1695552;85;21004;-66
2022/03/14 00:16:56;;;;;;;10.10;6.10;;;;;;;-4.86;63.95;96964.80;1695699;84;21577;-67
2022/03/14 00:19:22;;;;;;;11.43;5.90;;;;;;;-4.88;63.36;96967.67;1695448;84;21538;-67
2022/03/14 00:21:49;;;;;;;12.13;6.93;;;;;;;-4.95;63.32;96969.36;1695529;84;21028;-67
2022/03/14 00:24:15;;;;;;;11.53;6.20;;;;;;;-4.92;64.07;96969.55;1695567;85;21549;-67
2022/03/14 00:26:42;;;;;;;13.03;7.20;;;;;;;-4.98;63.69;96969.18;1695424;85;21136;-67
2022/03/14 00:29:09;;;;;;;13.70;7.23;;;;;;;-5.00;66.24;96975.10;1695368;84;21559;-67
2022/03/14 00:31:36;;;;;;;12.90;6.87;;;;;;;-5.04;65.17;96974.80;1695370;84;21151;-67
2022/03/14 00:34:03;;;;;;;9.80;5.17;;;;;;;-4.95;64.80;96973.23;1695462;85;21595;-67
2022/03/14 00:36:30;;;;;;;10.23;5.43;;;;;;;-4.92;65.19;96972.12;1695442;85;21040;-67
2022/03/14 00:38:57;;;;;;;10.60;6.17;;;;;;;-5.00;64.24;96979.37;1695403;85;21044;-67
2022/03/14 00:41:24;;;;;;;13.37;6.77;;;;;;;-4.98;63.90;96980.36;1695302;85;21586;-66
2022/03/14 00:43:51;;;;;;;12.37;6.23;;;;;;;-5.11;64.25;96982.55;1695501;85;21055;-67
2022/03/14 00:46:19;;;;;;;13.03;6.30;;;;;;;-5.05;64.36;96976.50;1695359;85;21028;-67
2022/03/14 00:48:46;;;;;;;11.80;6.17;;;;;;;-5.06;63.82;96972.56;1695395;85;21035;-67
2022/03/14 00:51:14;;;;;;;8.50;5.67;;;;;;;-5.08;63.94;96977.59;1695420;85;21060;-67
2022/03/14 00:53:40;;;;;;;11.80;6.33;;;;;;;-5.19;63.81;96972.55;1695334;85;21060;-67
2022/03/14 00:56:07;;;;;;;11.10;5.93;;;;;;;-5.17;63.75;96982.15;1695339;85;21039;-67
2022/03/14 00:58:34;;;;;;;10.43;6.10;;;;;;;-5.10;63.76;96979.17;1695307;85;21036;-66
2022/03/14 01:01:05;;;;;;;10.93;6.20;;;;;;;-5.06;63.58;96983.73;1695406;85;21032;-67
2022/03/14 01:03:32;;;;;;;12.47;5.93;;;;;;;-5.04;63.34;96982.53;1695487;84;21124;-67
2022/03/14 01:06:00;;;;;;;11.70;6.47;;;;;;;-5.04;63.22;96986.02;1695423;85;21491;-67
2022/03/14 01:08:27;;;;;;;10.40;5.70;;;;;;;-5.16;64.08;96980.09;1695475;84;21040;-67
2022/03/14 01:10:53;;;;;;;11.67;6.00;;;;;;;-5.07;63.72;96983.63;1695193;85;21606;-67
2022/03/14 01:13:20;;;;;;;15.73;6.50;;;;;;;-5.09;63.37;96986.12;1695396;85;21087;-66
2022/03/14 01:15:47;;;;;;;11.47;5.90;;;;;;;-5.08;62.97;96986.60;1695367;85;21033;-67
2022/03/14 01:18:14;;;;;;;11.97;6.67;;;;;;;-5.11;63.84;96995.83;1695496;84;21483;-67
2022/03/14 01:20:41;;;;;;;12.17;6.50;;;;;;;-5.17;63.69;96995.42;1695386;85;21091;-67
2022/03/14 01:23:08;;;;;;;11.93;6.13;;;;;;;-5.15;63.48;96998.58;1695400;85;21024;-67
2022/03/14 01:25:37;;;;;;;9.27;5.33;;;;;;;-5.12;63.43;96994.02;1695226;85;21196;-67
2022/03/14 01:28:04;;;;;;;11.53;5.67;;;;;;;-5.14;63.41;96987.52;1695348;84;21009;-66
2022/03/14 01:30:31;;;;;;;8.40;4.43;;;;;;;-5.20;63.40;96991.37;1708558;84;21131;-66
2022/03/14 01:33:00;;;;;;;13.40;6.50;;;;;;;-5.23;64.37;96992.06;1727925;83;20988;-67
2022/03/14 01:35:27;;;;;;;11.53;6.10;;;;;;;-5.28;64.12;96999.48;1728104;83;21017;-67
2022/03/14 01:37:54;;;;;;;10.43;5.87;;;;;;;-5.35;64.97;96998.59;1728143;83;21027;-67
2022/03/14 01:40:24;;;;;;;11.10;6.13;;;;;;;-5.50;64.80;97001.45;1728089;83;21024;-67
2022/03/14 01:42:51;;;;;;;10.23;5.57;;;;;;;-5.53;64.46;97009.86;1728014;83;21047;-67
2022/03/14 01:45:19;;;;;;;11.00;6.23;;;;;;;-5.51;64.66;97005.71;1728147;83;21031;-67
2022/03/14 01:47:47;;;;;;;11.37;6.07;;;;;;;-5.41;64.75;97010.18;1728092;83;21052;-67
2022/03/14 01:50:15;;;;;;;8.13;5.17;;;;;;;-5.35;64.17;97008.88;1728263;83;21028;-67
2022/03/14 01:52:44;;;;;;;10.67;5.70;;;;;;;-5.32;64.42;97011.64;1728138;83;21039;-67
2022/03/14 01:55:13;;;;;;;12.90;6.53;;;;;;;-5.42;63.70;97010.55;1728302;83;21043;-67
2022/03/14 01:57:41;;;;;;;12.03;6.00;;;;;;;-5.47;64.45;97014.13;1728067;83;21513;-67
2022/03/14 02:00:12;;;;;;;14.27;6.03;;;;;;;-5.58;65.01;97020.64;1728117;83;21046;-67
2022/03/14 02:02:43;;;;;;;12.15;5.58;;;;;;;-5.61;64.71;97018.75;1728257;83;21008;-67
2022/03/14 02:05:12;;;;;;;8.83;5.33;;;;;;;-5.66;64.43;97014.59;1728128;83;21020;-67
2022/03/14 02:07:38;;;;;;;9.27;5.90;;;;;;;-5.70;64.81;97022.88;1728252;83;21576;-67
2022/03/14 02:10:07;;;;;;;11.47;5.97;;;;;;;-5.81;65.42;97022.58;1728079;83;21522;-67
2022/03/14 02:12:34;;;;;;;10.80;6.30;;;;;;;-5.79;65.56;97014.98;1728093;83;21024;-66
2022/03/14 02:15:00;;;;;;;9.63;5.40;;;;;;;-5.76;65.68;97012.20;1728310;83;21564;-67
2022/03/14 02:17:27;;;;;;;12.60;6.27;;;;;;;-5.73;65.11;97012.80;1728167;83;21509;-67
2022/03/14 02:19:59;;;;;;;8.33;5.20;;;;;;;-5.73;66.48;97015.37;1728271;83;21027;-67
2022/03/14 02:22:25;;;;;;;10.20;5.80;;;;;;;-5.81;66.57;97022.97;1728056;83;21027;-68
2022/03/14 02:24:52;;;;;;;12.87;6.27;;;;;;;-5.73;65.98;97021.80;1728265;83;21024;-66
2022/03/14 02:27:19;;;;;;;11.77;6.13;;;;;;;-5.68;65.93;97017.45;1727993;83;21068;-67
2022/03/14 02:29:45;;;;;;;10.07;5.90;;;;;;;-5.68;65.46;97026.84;1723416;83;21075;-67
2022/03/14 02:32:12;;;;;;;8.33;4.53;;;;;;;-5.65;65.26;97032.19;1708047;84;21001;-67
2022/03/14 02:34:40;;;;;;;10.03;5.33;;;;;;;-5.68;65.08;97032.88;1708042;84;21050;-67
2022/03/14 02:37:07;;;;;;;10.67;4.93;;;;;;;-5.85;65.08;97032.14;1707803;84;21511;-67
2022/03/14 02:39:37;;;;;;;8.50;4.63;;;;;;;-5.89;65.17;97033.63;1707864;84;21032;-66
2022/03/14 02:42:06;;;;;;;9.23;5.13;;;;;;;-5.91;65.38;97036.88;1707934;84;21128;-67
2022/03/14 02:44:34;;;;;;;8.47;4.67;;;;;;;-5.85;65.55;97045.39;1707832;84;21490;-67
2022/03/14 02:47:04;;;;;;;13.07;6.00;;;;;;;-5.81;65.43;97034.54;1708009;84;21551;-67
2022/03/14 02:49:29;;;;;;;12.83;5.33;;;;;;;-5.84;65.07;97045.51;1708007;84;21013;-67
2022/03/14 02:51:56;;;;;;;8.73;4.10;;;;;;;-5.88;64.79;97056.36;1707846;84;21033;-66
2022/03/14 02:54:23;;;;;;;7.57;3.57;;;;;;;-5.98;65.77;97061.70;1708152;84;21480;-67
2022/03/14 02:56:49;;;;;;;10.73;5.23;;;;;;;-6.08;65.90;97061.45;1707868;84;21037;-67
2022/03/14 02:59:16;;;;;;;10.53;5.83;;;;;;;-6.15;65.77;97057.60;1708161;84;21578;-67
2022/03/14 03:01:42;;;;;;;11.20;5.30;;;;;;;-6.08;65.73;97058.01;1708099;84;21049;-66
2022/03/14 03:04:10;;;;;;;9.90;5.17;;;;;;;-6.01;65.64;97061.50;1708189;84;21012;-67
2022/03/14 03:06:36;;;;;;;11.63;5.40;;;;;;;-5.96;66.75;97063.98;1707994;84;21029;-67
2022/03/14 03:09:04;;;;;;;11.80;5.93;;;;;;;-5.98;65.80;97065.55;1708288;84;20996;-67
2022/03/14 03:11:32;;;;;;;10.53;5.80;;;;;;;-5.94;65.78;97070.12;1707906;84;21033;-68
2022/03/14 03:14:01;;;;;;;9.47;5.17;;;;;;;-5.97;65.75;97066.95;1708082;84;21021;-67
2022/03/14 03:16:28;;;;;;;11.50;5.30;;;;;;;-5.96;65.69;97073.86;1708066;84;21009;-67
2022/03/14 03:18:55;;;;;;;12.33;6.03;;;;;;;-5.90;65.49;97074.63;1708105;84;21032;-67
2022/03/14 03:21:22;;;;;;;12.27;5.03;;;;;;;-5.90;65.84;97079.41;1708110;84;21140;-67
2022/03/14 03:23:48;;;;;;;8.73;4.63;;;;;;;-5.90;65.34;97084.55;1708164;84;21020;-67
2022/03/14 03:26:16;;;;;;;8.33;4.60;;;;;;;-5.86;65.16;97081.78;1708085;84;21064;-67
2022/03/14 03:28:43;;;;;;;8.10;4.37;;;;;;;-5.92;65.08;97080.98;1707971;84;21499;-67
2022/03/14 03:31:16;;;;;;;7.87;3.53;;;;;;;-5.99;65.04;97086.91;1712955;84;21108;-67
2022/03/14 03:33:42;;;;;;;11.73;4.53;;;;;;;-6.07;65.35;97088.04;1715798;83;21044;-67
2022/03/14 03:36:09;;;;;;;11.43;5.00;;;;;;;-6.23;65.61;97089.95;1715919;84;21008;-67
2022/03/14 03:38:36;;;;;;;8.07;5.03;;;;;;;-6.22;65.80;97090.07;1715983;84;21104;-67
2022/03/14 03:41:04;;;;;;;7.73;4.03;;;;;;;-6.15;65.64;97093.57;1715948;83;21028;-66
2022/03/14 03:43:30;;;;;;;8.83;4.30;;;;;;;-6.12;66.38;97092.48;1715805;84;21504;-67
2022/03/14 03:45:58;;;;;;;8.50;4.33;;;;;;;-6.28;65.94;97102.47;1715875;83;21025;-67
2022/03/14 03:48:25;;;;;;;10.43;4.93;;;;;;;-6.26;66.11;97102.59;1715980;84;21040;-66
2022/03/14 03:50:53;;;;;;;10.47;4.60;;;;;;;-6.19;66.38;97108.26;1715764;84;21801;-67
2022/03/14 03:53:22;;;;;;;7.30;4.47;;;;;;;-6.07;66.14;97103.09;1715904;84;21609;-67
2022/03/14 03:55:48;;;;;;;9.07;4.80;;;;;;;-6.05;65.42;97101.89;1715957;84;21056;-67
2022/03/14 03:58:15;;;;;;;9.50;4.93;;;;;;;-6.15;65.51;97115.77;1715776;84;21040;-67
2022/03/14 04:00:44;;;;;;;8.70;3.83;;;;;;;-6.08;65.73;97120.55;1716088;84;21077;-67
2022/03/14 04:03:11;;;;;;;8.40;4.37;;;;;;;-6.16;65.59;97114.89;1715857;83;21065;-67
2022/03/14 04:05:40;;;;;;;10.10;5.00;;;;;;;-6.24;65.54;97119.01;1716094;84;21502;-67
2022/03/14 04:08:10;;;;;;;10.90;5.13;;;;;;;-6.24;66.01;97123.74;1716105;84;21044;-67
2022/03/14 04:10:39;;;;;;;7.43;4.60;;;;;;;-6.20;66.02;97119.70;1715941;83;21471;-67
2022/03/14 04:13:07;;;;;;;10.67;4.80;;;;;;;-6.17;66.28;97121.22;1703451;84;21088;-67
2022/03/14 04:15:49;;;;;;;10.03;5.10;;;;;;;-6.20;65.97;97130.89;1715802;84;21068;-67
2022/03/14 04:18:10;;;;;;;10.10;4.77;;;;;;;-6.19;65.63;97133.95;1714826;84;21100;-67
2022/03/14 04:20:36;;;;;;;7.93;5.17;;;;;;;-6.13;65.63;97130.51;1716009;84;21016;-67
2022/03/14 04:23:03;;;;;;;6.70;4.40;;;;;;;-6.07;65.85;97127.50;1715866;84;21486;-67
2022/03/14 04:25:30;;;;;;;12.60;5.10;;;;;;;-6.01;65.59;97135.63;1715876;84;21088;-67
2022/03/14 04:27:57;;;;;;;9.13;4.83;;;;;;;-5.99;65.26;97136.63;1691834;84;21044;-66
2022/03/14 04:30:24;;;;;;;7.47;4.20;;;;;;;-6.07;65.13;97139.42;1715690;84;21132;-67
2022/03/14 04:32:51;;;;;;;7.53;4.37;;;;;;;-6.17;65.12;97135.36;1715953;83;20989;-66
2022/03/14 04:35:17;;;;;;;8.67;4.90;;;;;;;-6.27;64.99;97136.38;1715747;84;21096;-66
2022/03/14 04:37:44;;;;;;;6.90;4.30;;;;;;;-6.40;67.21;97149.11;1715868;83;21013;-67
2022/03/14 04:40:14;;;;;;;9.57;4.33;;;;;;;-6.37;66.56;97140.38;1715833;84;21044;-67
2022/03/14 04:42:41;;;;;;;10.07;4.67;;;;;;;-6.32;66.36;97148.89;1715805;84;20988;-67
2022/03/14 04:45:09;;;;;;;8.93;4.50;;;;;;;-6.29;66.10;97148.22;1716005;83;21017;-67
2022/03/14 04:47:36;;;;;;;11.87;3.97;;;;;;;-6.24;66.15;97143.02;1715899;84;21008;-67
2022/03/14 04:50:05;;;;;;;5.27;3.23;;;;;;;-6.25;65.82;97145.06;1715810;84;21068;-67
2022/03/14 04:52:34;;;;;;;11.00;4.50;;;;;;;-6.27;66.11;97147.94;1715927;84;21041;-67
2022/03/14 04:55:01;;;;;;;10.60;4.53;;;;;;;-6.46;65.70;97156.40;1715966;83;21530;-68
2022/03/14 04:57:27;;;;;;;9.20;4.23;;;;;;;-6.49;66.72;97153.62;1715604;84;21028;-67
2022/03/14 04:59:54;;;;;;;7.67;3.90;;;;;;;-6.44;66.56;97158.29;1715941;83;21079;-67
2022/03/14 05:02:22;;;;;;;7.67;4.20;;;;;;;-6.46;67.24;97158.97;1715954;84;21522;-67
2022/03/14 05:04:51;;;;;;;12.20;4.40;;;;;;;-6.40;67.62;97165.81;1715905;84;21060;-67
2022/03/14 05:07:17;;;;;;;8.33;4.40;;;;;;;-6.38;68.81;97157.83;1715850;83;21404;-67
2022/03/14 05:09:44;;;;;;;6.47;3.67;;;;;;;-6.29;67.96;97170.45;1715943;84;21080;-67
2022/03/14 05:12:14;;;;;;;7.73;4.27;;;;;;;-6.21;67.44;97157.75;1715709;84;21027;-67
2022/03/14 05:14:40;;;;;;;7.60;4.50;;;;;;;-6.19;66.86;97160.92;1715954;84;21106;-67
2022/03/14 05:17:08;;;;;;;8.83;4.70;;;;;;;-6.03;67.33;97164.56;1715836;84;21024;-67
2022/03/14 05:19:35;;;;;;;8.70;4.20;;;;;;;-5.98;66.86;97162.80;1715691;84;21023;-67
2022/03/14 05:22:02;;;;;;;7.00;3.53;;;;;;;-5.89;66.91;97166.39;1715881;83;21007;-67
2022/03/14 05:24:30;;;;;;;21.03;10.23;;;;;;;-5.98;67.74;97169.63;1715953;83;21033;-67
2022/03/14 05:26:57;;;;;;;116.00;36.40;;;;;;;-6.15;69.28;97174.50;1703849;83;20996;-67
2022/03/14 05:29:24;;;;;;;8.57;4.27;;;;;;;-6.13;68.33;97176.75;1702296;84;21502;-67
2022/03/14 05:31:51;;;;;;;6.97;4.30;;;;;;;-5.99;68.43;97179.03;1702260;84;21059;-69
2022/03/14 05:34:18;;;;;;;6.67;3.37;;;;;;;-5.85;68.14;97172.63;1715864;84;21040;-67
2022/03/14 05:36:44;;;;;;;7.70;4.30;;;;;;;-5.78;68.22;97174.44;1715819;84;21064;-67
2022/03/14 05:39:11;;;;;;;16.73;8.27;;;;;;;-5.72;67.73;97168.45;1715881;83;21100;-67
2022/03/14 05:41:37;;;;;;;26.37;12.50;;;;;;;-5.55;68.77;97178.59;1715936;84;21021;-67
2022/03/14 05:44:04;;;;;;;24.63;12.53;;;;;;;-5.36;69.07;97179.86;1685592;85;21507;-67
2022/03/14 05:46:33;;;;;;;11.27;5.60;;;;;;;-5.26;68.86;97182.27;1685794;85;21506;-67
2022/03/14 05:49:00;;;;;;;12.83;7.80;;;;;;;-5.24;68.66;97184.15;1715969;84;21024;-67
2022/03/14 05:51:27;;;;;;;25.67;14.70;;;;;;;-5.18;68.54;97187.52;1715823;84;20969;-67
2022/03/14 05:53:54;;;;;;;33.73;15.93;;;;;;;-4.97;68.35;97191.03;1685807;85;21020;-67
2022/03/14 05:56:20;;;;;;;32.47;18.10;;;;;;;-4.86;67.16;97194.81;1685745;85;21052;-67
2022/03/14 05:58:47;;;;;;;11.17;6.13;;;;;;;-4.82;66.57;97193.33;1685679;85;21065;-67
2022/03/14 06:01:13;;;;;;;12.23;5.53;;;;;;;-4.81;68.44;97196.02;1715829;83;21021;-69
2022/03/14 06:03:40;;;;;;;10.93;5.23;;;;;;;-4.76;68.57;97213.42;1714450;83;21004;-70
2022/03/14 06:06:07;;;;;;;38.67;19.90;;;;;;;-4.68;69.54;97200.28;1715295;84;21111;-70
2022/03/14 06:08:35;;;;;;;29.97;15.13;;;;;;;-4.53;68.42;97209.81;1703126;83;21000;-67
2022/03/14 06:11:07;;;;;;;29.10;15.63;;;;;;;-4.33;67.86;97209.41;1685559;84;21071;-68
2022/03/14 06:13:30;;;;;;;29.87;16.00;;;;;;;-4.21;67.45;97206.70;1685628;85;21047;-68
2022/03/14 06:15:56;;;;;;;28.57;14.50;;;;;;;-4.08;67.68;97204.14;1686228;85;21636;-69
2022/03/14 06:18:23;;;;;;;16.07;8.33;;;;;;;-3.98;66.75;97203.00;1686007;85;21048;-69
2022/03/14 06:20:49;;;;;;;25.07;11.97;;;;;;;-3.89;66.67;97202.70;1714067;84;21614;-68
2022/03/14 06:23:16;;;;;;;26.57;14.90;;;;;;;-3.81;66.48;97207.53;1715569;84;21004;-66
2022/03/14 06:25:43;;;;;;;27.40;15.70;;;;;;;-3.62;66.11;97207.00;1715664;83;21057;-69
2022/03/14 06:28:10;;;;;;;29.27;15.57;;;;;;;-3.39;66.01;97208.40;1715311;84;21040;-67
2022/03/14 06:30:36;;;;;;;26.37;16.17;;;;;;;-3.16;65.20;97205.91;1715534;83;21068;-66
2022/03/14 06:33:03;;;;;;;23.93;14.27;;;;;;;-2.93;64.97;97206.39;1707206;84;21072;-65
2022/03/14 06:35:29;;;;;;;23.80;14.67;;;;;;;-2.69;64.49;97207.83;1706395;84;21001;-66
2022/03/14 06:37:56;;;;;;;26.70;13.73;;;;;;;-2.45;63.30;97204.87;1706407;84;21040;-70
2022/03/14 06:40:26;;;;;;;25.07;13.63;;;;;;;-2.34;61.98;97202.88;1707230;84;22127;-70
2022/03/14 06:42:52;;;;;;;25.10;12.80;;;;;;;-2.18;62.70;97206.84;1706956;84;21033;-67
2022/03/14 06:45:24;;;;;;;266.00;166.17;;;;;;;-2.02;62.07;97205.99;1703367;84;21095;-69
2022/03/14 06:47:54;;;;;;;51.68;30.90;;;;;;;-1.88;61.14;97202.89;1698075;84;21041;-68
2022/03/14 06:50:23;;;;;;;36.30;20.73;;;;;;;-1.72;61.24;97204.20;1695585;85;21060;-72
2022/03/14 06:52:50;;;;;;;24.43;13.53;;;;;;;-1.53;60.30;97207.40;1694616;85;21137;-69
2022/03/14 06:55:17;;;;;;;36.00;23.03;;;;;;;-1.37;61.09;97207.39;1694786;85;21037;-69
2022/03/14 06:57:44;;;;;;;37.33;22.47;;;;;;;-1.21;60.11;97207.83;1693841;84;21038;-70
2022/03/14 07:00:11;;;;;;;35.17;18.03;;;;;;;-1.03;60.17;97204.00;1700594;84;21040;-71
2022/03/14 07:02:40;;;;;;;49.57;32.60;;;;;;;-0.88;59.61;97211.68;1707568;84;21036;-72
2022/03/14 07:05:13;;;;;;;25.33;14.57;;;;;;;-0.71;59.85;97210.81;1707479;84;21041;-71
2022/03/14 07:07:40;;;;;;;21.48;12.18;;;;;;;-0.58;58.32;97208.46;1707496;84;21032;-68
2022/03/14 07:10:09;;;;;;;25.70;12.90;;;;;;;-0.52;58.06;97213.05;1706365;84;21052;-69
2022/03/14 07:12:44;;;;;;;18.30;11.47;;;;;;;-0.44;58.18;97217.80;1706965;84;21124;-69
2022/03/14 07:15:08;;;;;;;24.10;13.97;;;;;;;-0.27;58.26;97204.79;1705960;84;21048;-70
2022/03/14 07:17:34;;;;;;;15.80;10.03;;;;;;;-0.09;57.12;97212.16;1707547;84;21563;-68
2022/03/14 07:20:01;;;;;;;15.87;9.17;;;;;;;0.03;57.11;97212.28;1707960;84;21028;-68
2022/03/14 07:22:30;;;;;;;16.60;8.53;;;;;;;0.09;55.91;97214.74;1704949;84;21590;-69
2022/03/14 07:24:57;;;;;;;16.37;9.67;;;;;;;0.28;56.48;97218.20;1702384;84;21063;-70
2022/03/14 07:27:24;;;;;;;18.67;11.33;;;;;;;0.49;56.89;97219.22;1661403;86;21057;-73
2022/03/14 07:29:50;;;;;;;21.43;11.53;;;;;;;0.64;55.59;97212.55;1661027;86;21105;-69
2022/03/14 07:32:17;;;;;;;20.53;13.93;;;;;;;0.80;55.36;97214.12;1660676;86;21013;-72
2022/03/14 07:34:43;;;;;;;17.37;10.57;;;;;;;0.86;54.47;97210.09;1661390;85;21499;-70
2022/03/14 07:37:10;;;;;;;20.10;12.70;;;;;;;1.00;54.33;97212.00;1660469;85;21087;-70
2022/03/14 07:39:37;;;;;;;17.03;10.87;;;;;;;1.20;54.76;97211.99;1660632;86;22269;-71
2022/03/14 07:42:04;;;;;;;15.73;8.93;;;;;;;1.33;53.87;97218.61;1660934;86;21044;-69
2022/03/14 07:44:31;;;;;;;14.00;7.53;;;;;;;1.41;53.14;97215.53;1660388;86;21120;-76
2022/03/14 07:46:58;;;;;;;18.00;10.80;;;;;;;1.57;52.14;97207.95;1661617;85;21470;-70
2022/03/14 07:49:26;;;;;;;18.67;9.23;;;;;;;1.77;52.79;97207.91;1661608;85;21601;-68
2022/03/14 07:51:53;;;;;;;25.83;9.40;;;;;;;1.97;52.76;97205.70;1660937;86;21144;-69
2022/03/14 07:54:20;;;;;;;20.77;9.83;;;;;;;2.16;50.94;97202.98;1661151;86;21092;-70
2022/03/14 07:56:46;;;;;;;18.90;9.57;;;;;;;2.34;50.33;97204.54;1660966;85;21092;-68
2022/03/14 07:59:13;;;;;;;16.90;8.37;;;;;;;2.55;51.14;97204.50;1660746;85;21123;-70
2022/03/14 08:01:39;;;;;;;18.80;9.00;;;;;;;2.72;49.70;97199.52;1673242;84;21039;-71
2022/03/14 08:04:06;;;;;;;16.93;9.80;;;;;;;2.92;48.00;97197.63;1706027;84;21598;-69
2022/03/14 08:06:34;;;;;;;16.00;9.50;;;;;;;3.11;47.62;97197.89;1706826;84;21045;-70
2022/03/14 08:09:02;;;;;;;29.50;11.00;;;;;;;3.27;46.74;97196.70;1710593;84;21097;-74
2022/03/14 08:11:30;;;;;;;19.07;9.37;;;;;;;3.39;43.46;97193.23;1698976;84;21077;-71
2022/03/14 08:13:58;;;;;;;17.30;9.50;;;;;;;3.50;39.91;97194.02;1698108;84;21038;-70
2022/03/14 08:16:25;;;;;;;20.70;10.07;;;;;;;3.60;38.30;97193.10;1697623;84;21527;-67
2022/03/14 08:18:52;;;;;;;13.97;9.43;;;;;;;3.74;38.72;97190.06;1698075;84;21074;-71
2022/03/14 08:21:18;;;;;;;20.97;9.73;;;;;;;3.85;38.78;97189.98;1711803;83;22025;-70
2022/03/14 08:23:49;;;;;;;17.40;9.30;;;;;;;3.96;38.46;97181.22;1711883;83;21019;-67
2022/03/14 08:26:17;;;;;;;15.23;9.27;;;;;;;4.08;38.41;97183.80;1711156;83;21090;-67
2022/03/14 08:28:44;;;;;;;18.87;12.53;;;;;;;4.24;38.03;97182.55;1711529;83;20995;-68
2022/03/14 08:31:15;;;;;;;20.17;11.23;;;;;;;4.41;38.27;97189.63;1711264;84;21095;-66
2022/03/14 08:33:42;;;;;;;19.27;10.80;;;;;;;4.56;37.27;97191.79;1662954;86;21587;-67
2022/03/14 08:36:09;;;;;;;15.90;10.50;;;;;;;4.73;37.86;97188.38;1696940;84;20996;-70
2022/03/14 08:38:37;;;;;;;21.37;9.67;;;;;;;4.88;36.87;97193.18;1696967;84;21051;-72
2022/03/14 08:41:04;;;;;;;86.07;48.30;;;;;;;5.03;37.14;97190.13;1661877;86;21042;-64
2022/03/14 08:43:31;;;;;;;18.30;11.07;;;;;;;5.16;34.81;97191.80;1656494;85;21047;-62
2022/03/14 08:45:57;;;;;;;31.87;17.77;;;;;;;5.26;34.91;97187.72;1696844;84;21046;-65
2022/03/14 08:48:24;;;;;;;17.80;10.20;;;;;;;5.30;33.79;97191.33;1662969;86;21098;-68
2022/03/14 08:50:51;;;;;;;52.63;36.10;;;;;;;5.37;33.36;97181.49;1697221;84;21078;-67
2022/03/14 08:53:18;;;;;;;49.67;31.40;;;;;;;5.37;32.94;97183.69;1661933;86;21649;-65
2022/03/14 08:55:45;;;;;;;28.60;20.40;;;;;;;5.51;34.00;97177.92;1660247;86;21081;-67
2022/03/14 08:58:12;;;;;;;40.77;31.00;;;;;;;5.61;33.77;97178.19;1645320;86;22494;-66
2022/03/14 09:00:38;;;;;;;41.17;29.70;;;;;;;5.73;33.36;97184.19;1686351;83;21493;-65
2022/03/14 09:03:05;;;;;;;21.60;13.90;;;;;;;5.82;33.17;97186.13;1689017;84;21033;-65
2022/03/14 09:05:32;;;;;;;32.67;23.23;;;;;;;5.97;33.54;97186.59;1694495;83;21066;-70
2022/03/14 09:07:58;;;;;;;38.47;29.60;;;;;;;6.07;33.50;97185.05;1692014;83;21031;-66
2022/03/14 09:10:25;;;;;;;31.20;21.87;;;;;;;6.21;33.14;97191.52;1693823;83;20990;-67
2022/03/14 09:12:51;;;;;;;28.23;19.90;;;;;;;6.32;32.83;97179.97;1696444;84;21054;-67
2022/03/14 09:15:20;;;;;;;25.67;16.30;;;;;;;6.41;31.91;97188.06;1695813;83;21010;-64
2022/03/14 09:17:59;;;;;;;34.23;22.57;;;;;;;6.54;32.32;97185.72;1691050;83;21523;-67
2022/03/14 09:20:27;;;;;;;59.80;38.43;;;;;;;6.48;31.16;97180.80;1694282;83;21004;-67
2022/03/14 09:22:54;;;;;;;44.30;28.53;;;;;;;6.52;32.27;97186.11;1695450;83;20979;-67
2022/03/14 09:25:23;;;;;;;13.30;7.10;;;;;;;6.57;32.27;97186.66;1696251;83;21003;-66
2022/03/14 09:27:51;;;;;;;27.90;19.07;;;;;;;6.76;31.11;97189.72;1690006;84;21624;-68
2022/03/14 09:30:19;;;;;;;13.87;8.30;;;;;;;6.90;31.11;97186.94;1695147;83;20991;-69
2022/03/14 09:32:46;;;;;;;20.40;13.93;;;;;;;6.82;29.23;97185.90;1698907;84;21200;-68
2022/03/14 09:35:14;;;;;;;25.93;15.80;;;;;;;6.86;29.61;97191.69;1705181;82;21022;-69
2022/03/14 09:37:42;;;;;;;25.43;16.17;;;;;;;7.00;30.37;97184.09;1704946;84;21049;-68
2022/03/14 09:40:13;;;;;;;38.40;23.00;;;;;;;7.10;30.99;97190.86;1705778;82;21527;-70
2022/03/14 09:42:42;;;;;;;17.43;9.53;;;;;;;7.15;30.16;97194.90;1703290;82;21043;-68
2022/03/14 09:45:13;;;;;;;15.90;10.43;;;;;;;7.19;30.15;97191.49;1703872;82;21064;-68
2022/03/14 09:47:45;;;;;;;15.87;11.63;;;;;;;7.24;29.81;97191.16;1705225;84;22224;-70
2022/03/14 09:50:29;;;;;;;29.90;18.03;;;;;;;7.26;28.77;97186.83;1703333;84;21156;-70
2022/03/14 09:52:58;;;;;;;20.27;12.33;;;;;;;7.27;28.42;97185.96;1703498;82;21529;-68
2022/03/14 09:55:25;;;;;;;18.37;12.03;;;;;;;7.42;29.76;97191.06;1707493;84;21454;-68
2022/03/14 09:57:53;;;;;;;27.50;20.30;;;;;;;7.50;28.13;97190.34;1707653;84;21013;-69
2022/03/14 10:00:19;;;;;;;31.27;23.23;;;;;;;7.64;29.11;97194.55;1706970;84;21575;-68
2022/03/14 10:02:46;;;;;;;29.20;19.53;;;;;;;7.75;29.45;97187.73;1699166;83;21044;-68
2022/03/14 10:05:16;;;;;;;19.53;13.50;;;;;;;7.82;28.60;97187.43;1707105;84;21445;-70
2022/03/14 10:07:45;;;;;;;46.80;28.70;;;;;;;7.85;28.50;97183.53;1706732;84;21138;-70
2022/03/14 10:10:14;;;;;;;67.60;31.17;;;;;;;8.02;28.61;97186.03;1707440;84;21028;-71
2022/03/14 10:12:42;;;;;;;26.30;15.87;;;;;;;7.99;27.28;97186.42;1706170;84;21145;-70
2022/03/14 10:15:11;;;;;;;12.57;8.73;;;;;;;8.09;28.33;97189.66;1705935;84;21545;-71
2022/03/14 10:17:37;;;;;;;12.93;9.17;;;;;;;8.13;27.23;97190.58;1706678;84;21059;-70
2022/03/14 10:20:09;;;;;;;12.87;8.93;;;;;;;8.17;27.28;97192.41;1707389;84;21043;-70
2022/03/14 10:22:40;;;;;;;14.90;10.43;;;;;;;8.19;26.95;97198.15;1707642;84;21020;-70
2022/03/14 10:25:11;;;;;;;13.73;9.47;;;;;;;8.23;26.26;97194.69;1707754;84;21008;-70
2022/03/14 10:27:41;;;;;;;26.50;16.80;;;;;;;8.30;26.92;97202.70;1707818;84;21043;-70
2022/03/14 10:30:33;;;;;;;14.17;9.00;;;;;;;8.43;27.48;97204.69;1706874;84;21027;-70
2022/03/14 10:33:16;;;;;;;12.77;8.30;;;;;;;8.57;26.16;97199.65;1628982;87;21059;-70
2022/03/14 10:35:45;;;;;;;13.07;8.67;;;;;;;8.62;27.57;97204.11;1681948;85;21145;-70
2022/03/14 10:38:13;;;;;;;13.33;8.83;;;;;;;8.75;26.74;97205.17;1691376;85;21049;-70
2022/03/14 10:40:44;;;;;;;12.20;8.90;;;;;;;8.90;26.76;97203.19;1682178;85;21135;-70
2022/03/14 10:43:25;;;;;;;11.73;8.20;;;;;;;8.90;25.54;97199.68;1695202;85;21118;-70
2022/03/14 10:45:55;;;;;;;11.00;7.67;;;;;;;8.93;26.03;97202.34;1691523;85;21571;-70
2022/03/14 10:48:42;;;;;;;12.83;7.70;;;;;;;8.95;25.09;97196.67;1691272;85;21453;-70
2022/03/14 10:51:14;;;;;;;12.03;8.57;;;;;;;8.99;25.17;97194.08;1682275;84;21031;-70
2022/03/14 10:53:45;;;;;;;13.87;7.60;;;;;;;9.25;27.76;97187.84;1662033;86;21584;-70
2022/03/14 10:56:13;;;;;;;11.80;7.57;;;;;;;9.37;25.95;97186.20;1689360;85;21128;-71
2022/03/14 10:58:40;;;;;;;23.63;17.27;;;;;;;9.42;26.24;97179.23;1681041;84;21055;-71
2022/03/14 11:01:09;;;;;;;16.20;11.00;;;;;;;9.85;27.58;97170.05;1661456;86;21046;-71
2022/03/14 11:03:39;;;;;;;11.33;8.20;;;;;;;10.34;25.82;97174.89;1661856;86;21026;-70
2022/03/14 11:06:13;;;;;;;17.17;12.50;;;;;;;10.87;26.68;97169.52;1662194;86;21033;-71
2022/03/14 11:08:42;;;;;;;12.20;8.43;;;;;;;11.44;25.14;97168.89;1691447;84;21547;-71
2022/03/14 11:11:14;;;;;;;14.77;9.70;;;;;;;11.64;23.40;97162.34;1659793;86;21005;-70
2022/03/14 11:13:45;;;;;;;12.17;9.00;;;;;;;11.82;22.22;97160.17;1691420;85;21089;-70
2022/03/14 11:16:26;;;;;;;14.00;9.43;;;;;;;12.06;21.22;97161.97;1681885;84;21064;-70
2022/03/14 11:18:54;;;;;;;15.98;11.15;;;;;;;12.32;23.97;97159.77;1691485;85;21033;-70
2022/03/14 11:21:24;;;;;;;13.38;10.43;;;;;;;12.82;21.68;97157.95;1691323;85;21025;-70
2022/03/14 11:23:53;;;;;;;16.40;9.63;;;;;;;12.93;20.58;97164.99;1691389;85;21041;-71
2022/03/14 11:26:23;;;;;;;12.58;8.73;;;;;;;13.01;21.12;97157.02;1682525;85;21035;-70
2022/03/14 11:28:54;;;;;;;13.85;7.72;;;;;;;12.98;20.03;97150.41;1695272;85;21015;-70
2022/03/14 11:31:23;;;;;;;11.68;8.30;;;;;;;13.14;20.65;97152.55;1691293;84;21544;-70